createdAt,value
2018-07-13T00:02:04.138Z,7.60
2018-07-13T00:04:31.781Z,8.60
2018-07-13T00:06:59.426Z,7.93
2018-07-13T00:09:27.017Z,9.27
2018-07-13T00:11:54.677Z,8.93
2018-07-13T00:14:23.380Z,8.00
2018-07-13T00:16:52.334Z,8.20
2018-07-13T00:19:20.687Z,8.07
2018-07-13T00:21:48.293Z,8.20
2018-07-13T00:24:15.939Z,8.00
2018-07-13T00:26:43.681Z,8.87
2018-07-13T00:29:11.439Z,8.13
2018-07-13T00:31:40.084Z,7.80
2018-07-13T00:34:07.785Z,8.83
2018-07-13T00:36:35.517Z,9.23
2018-07-13T00:39:05.176Z,9.47
2018-07-13T00:41:33.069Z,8.00
2018-07-13T00:44:00.716Z,8.97
2018-07-13T00:46:28.415Z,9.80
2018-07-13T00:48:56.051Z,9.93
2018-07-13T00:51:23.667Z,8.20
2018-07-13T00:53:51.298Z,7.23
2018-07-13T00:56:18.957Z,7.07
2018-07-13T00:58:46.581Z,7.10
2018-07-13T01:01:14.251Z,7.33
2018-07-13T01:03:41.913Z,7.97
2018-07-13T01:06:09.560Z,7.80
2018-07-13T01:08:37.228Z,7.57
2018-07-13T01:11:04.921Z,9.80
2018-07-13T01:13:32.621Z,8.50
2018-07-13T01:16:00.224Z,7.30
2018-07-13T01:18:27.872Z,8.90
2018-07-13T01:20:55.533Z,8.87
2018-07-13T01:23:23.196Z,7.90
2018-07-13T01:25:50.823Z,9.03
2018-07-13T01:28:18.430Z,8.10
2018-07-13T01:30:46.102Z,8.33
2018-07-13T01:33:13.806Z,9.67
2018-07-13T01:35:41.467Z,9.10
2018-07-13T01:38:09.152Z,9.53
2018-07-13T01:40:36.808Z,9.17
2018-07-13T01:43:04.456Z,9.43
2018-07-13T01:45:32.110Z,10.60
2018-07-13T01:47:59.596Z,9.23
2018-07-13T01:50:27.216Z,10.40
2018-07-13T01:52:54.812Z,9.50
2018-07-13T01:55:22.438Z,8.37
2018-07-13T01:57:50.073Z,10.27
2018-07-13T02:00:17.699Z,9.57
2018-07-13T02:02:45.324Z,10.00
2018-07-13T02:05:12.968Z,9.70
2018-07-13T02:07:40.553Z,9.47
2018-07-13T02:10:08.174Z,9.33
2018-07-13T02:12:35.853Z,9.00
2018-07-13T02:15:03.699Z,9.87
2018-07-13T02:17:31.348Z,9.53
2018-07-13T02:19:58.991Z,10.90
2018-07-13T02:22:26.584Z,9.83
2018-07-13T02:24:54.222Z,10.27
2018-07-13T02:27:21.869Z,9.23
2018-07-13T02:29:49.493Z,9.20
2018-07-13T02:32:17.106Z,9.97
2018-07-13T02:34:44.790Z,9.70
2018-07-13T02:37:12.450Z,9.60
2018-07-13T02:39:40.098Z,10.40
2018-07-13T02:42:07.840Z,10.13
2018-07-13T02:44:35.461Z,10.60
2018-07-13T02:47:03.127Z,10.60
2018-07-13T02:49:30.783Z,9.20
2018-07-13T02:51:58.461Z,9.97
2018-07-13T02:54:26.080Z,10.13
2018-07-13T02:56:54.365Z,9.90
2018-07-13T02:59:22.008Z,10.53
2018-07-13T03:01:49.638Z,9.40
2018-07-13T03:04:17.160Z,9.37
2018-07-13T03:06:44.759Z,10.07
2018-07-13T03:09:12.926Z,9.77
2018-07-13T03:11:47.477Z,9.80
2018-07-13T03:14:15.138Z,9.00
2018-07-13T03:16:42.787Z,8.97
2018-07-13T03:19:10.462Z,8.97
2018-07-13T03:21:38.069Z,9.43
2018-07-13T03:24:05.659Z,9.17
2018-07-13T03:26:33.318Z,10.53
2018-07-13T03:29:00.956Z,9.17
2018-07-13T03:31:28.563Z,10.10
2018-07-13T03:33:56.207Z,8.90
2018-07-13T03:36:23.856Z,9.70
2018-07-13T03:38:51.488Z,9.50
2018-07-13T03:41:19.159Z,9.90
2018-07-13T03:43:46.781Z,9.83
2018-07-13T03:46:14.392Z,9.10
2018-07-13T03:48:42.063Z,9.10
2018-07-13T03:51:09.731Z,8.53
2018-07-13T03:53:37.402Z,9.33
2018-07-13T03:56:05.252Z,9.70
2018-07-13T03:58:33.178Z,10.13
2018-07-13T04:01:00.801Z,8.83
2018-07-13T04:03:28.444Z,8.23
2018-07-13T04:05:56.125Z,9.63
2018-07-13T04:08:23.806Z,8.87
2018-07-13T04:10:51.512Z,9.70
2018-07-13T04:13:19.086Z,8.87
2018-07-13T04:15:46.743Z,9.60
2018-07-13T04:18:20.360Z,9.20
2018-07-13T04:20:48.577Z,9.53
2018-07-13T04:23:16.359Z,10.10
2018-07-13T04:25:52.213Z,9.80
2018-07-13T04:28:20.800Z,10.60
2018-07-13T04:30:49.004Z,9.60
2018-07-13T04:33:16.643Z,10.30
2018-07-13T04:35:44.288Z,10.47
2018-07-13T04:38:12.104Z,11.70
2018-07-13T04:40:39.804Z,9.60
2018-07-13T04:43:07.703Z,10.27
2018-07-13T04:45:35.435Z,10.80
2018-07-13T04:48:03.428Z,12.10
2018-07-13T04:50:31.176Z,12.10
2018-07-13T04:52:59.539Z,11.10
2018-07-13T04:55:27.319Z,10.03
2018-07-13T04:57:55.100Z,11.63
2018-07-13T05:00:22.888Z,12.03
2018-07-13T05:02:51.141Z,12.43
2018-07-13T05:05:19.098Z,13.10
2018-07-13T05:07:46.859Z,12.43
2018-07-13T05:10:14.569Z,12.93
2018-07-13T05:12:42.271Z,13.40
2018-07-13T05:15:09.955Z,12.73
2018-07-13T05:17:37.618Z,13.13
2018-07-13T05:20:05.732Z,11.93
2018-07-13T05:22:34.304Z,12.30
2018-07-13T05:25:02.056Z,12.20
2018-07-13T05:27:30.300Z,12.37
2018-07-13T05:29:58.651Z,11.20
2018-07-13T05:32:26.439Z,10.93
2018-07-13T05:34:54.598Z,11.40
2018-07-13T05:37:22.418Z,11.30
2018-07-13T05:39:50.270Z,11.47
2018-07-13T05:42:18.090Z,11.43
2018-07-13T05:44:45.871Z,11.00
2018-07-13T05:47:13.608Z,13.60
2018-07-13T05:49:41.348Z,11.40
2018-07-13T05:52:09.092Z,11.67
2018-07-13T05:54:36.923Z,12.23
2018-07-13T05:57:04.646Z,11.33
2018-07-13T05:59:32.392Z,11.53
2018-07-13T06:01:59.982Z,11.70
2018-07-13T06:04:27.662Z,11.20
2018-07-13T06:06:55.406Z,10.50
2018-07-13T06:09:24.108Z,10.97
2018-07-13T06:11:51.940Z,10.13
2018-07-13T06:14:19.567Z,10.73
2018-07-13T06:16:47.216Z,11.00
2018-07-13T06:19:14.915Z,9.70
2018-07-13T06:21:42.613Z,9.60
2018-07-13T06:24:10.288Z,11.20
2018-07-13T06:26:37.943Z,10.20
2018-07-13T06:29:05.639Z,9.43
2018-07-13T06:31:33.431Z,9.23
2018-07-13T06:34:01.114Z,10.63
2018-07-13T06:36:28.876Z,8.83
2018-07-13T06:38:56.639Z,8.80
2018-07-13T06:41:30.294Z,9.30
2018-07-13T06:43:58.123Z,10.13
2018-07-13T06:46:25.892Z,9.23
2018-07-13T06:48:53.628Z,9.23
2018-07-13T06:51:21.311Z,11.00
2018-07-13T06:53:49.053Z,8.73
2018-07-13T06:56:16.716Z,8.70
2018-07-13T06:58:55.496Z,8.83
2018-07-13T07:01:23.302Z,8.57
2018-07-13T07:04:25.702Z,7.87
2018-07-13T07:06:54.075Z,6.83
2018-07-13T07:09:22.047Z,6.90
2018-07-13T07:12:57.943Z,6.83
2018-07-13T07:15:25.646Z,6.53
2018-07-13T07:17:54.284Z,6.60
2018-07-13T07:20:22.090Z,5.60
2018-07-13T07:22:49.827Z,6.33
2018-07-13T07:25:19.018Z,6.77
2018-07-13T07:27:46.746Z,8.20
2018-07-13T07:30:14.509Z,7.30
2018-07-13T07:32:42.602Z,6.23
2018-07-13T07:35:10.693Z,6.07
2018-07-13T07:37:38.441Z,6.37
2018-07-13T07:40:06.351Z,5.97
2018-07-13T07:42:34.207Z,8.60
2018-07-13T07:45:02.217Z,5.67
2018-07-13T07:47:29.904Z,6.43
2018-07-13T07:49:58.335Z,5.70
2018-07-13T07:52:26.045Z,6.07
2018-07-13T07:54:53.793Z,5.87
2018-07-13T07:57:21.482Z,5.07
2018-07-13T07:59:49.198Z,5.13
2018-07-13T08:02:16.933Z,4.70
2018-07-13T08:04:44.608Z,4.77
2018-07-13T08:07:12.658Z,4.77
2018-07-13T08:09:39.931Z,4.70
2018-07-13T08:12:07.697Z,4.43
2018-07-13T08:14:35.398Z,4.30
2018-07-13T08:17:03.189Z,4.60
2018-07-13T08:19:30.830Z,4.37
2018-07-13T08:22:05.885Z,5.17
2018-07-13T08:24:33.685Z,4.60
2018-07-13T08:27:03.471Z,4.43
2018-07-13T08:29:34.476Z,5.33
2018-07-13T08:32:02.454Z,4.10
2018-07-13T08:34:30.067Z,3.73
2018-07-13T08:36:57.714Z,4.20
2018-07-13T08:39:25.392Z,3.43
2018-07-13T08:41:53.042Z,4.63
2018-07-13T08:44:20.794Z,4.37
2018-07-13T08:46:48.523Z,3.90
2018-07-13T08:49:17.450Z,4.00
2018-07-13T08:51:45.543Z,5.33
2018-07-13T08:54:13.439Z,4.43
2018-07-13T08:56:41.179Z,4.13
2018-07-13T08:59:08.941Z,5.37
2018-07-13T09:01:36.733Z,4.57
2018-07-13T09:04:04.452Z,4.60
2018-07-13T09:06:32.184Z,5.10
2018-07-13T09:08:59.859Z,5.00
2018-07-13T09:11:27.614Z,4.43
2018-07-13T09:13:55.331Z,3.90
2018-07-13T09:16:23.007Z,4.87
2018-07-13T09:18:50.722Z,4.60
2018-07-13T09:21:18.353Z,4.90
2018-07-13T09:23:45.996Z,5.27
2018-07-13T09:26:13.708Z,6.10
2018-07-13T09:28:41.361Z,4.93
2018-07-13T09:31:09.067Z,4.97
2018-07-13T09:33:36.758Z,3.90
2018-07-13T09:36:04.452Z,5.00
2018-07-13T09:38:32.238Z,4.60
2018-07-13T09:40:59.937Z,4.67
2018-07-13T09:43:27.706Z,5.20
2018-07-13T09:45:55.450Z,4.50
2018-07-13T09:48:23.170Z,4.30
2018-07-13T09:50:50.821Z,4.40
2018-07-13T09:53:18.580Z,5.13
2018-07-13T09:55:46.257Z,4.30
2018-07-13T09:58:13.984Z,5.40
2018-07-13T10:00:50.380Z,5.50
2018-07-13T10:03:38.672Z,5.27
2018-07-13T10:06:06.441Z,4.60
2018-07-13T10:08:34.608Z,4.77
2018-07-13T10:11:02.351Z,4.60
2018-07-13T10:13:30.099Z,4.67
2018-07-13T10:15:57.835Z,4.80
2018-07-13T10:18:25.544Z,5.00
2018-07-13T10:20:53.199Z,4.37
2018-07-13T10:23:21.429Z,4.90
2018-07-13T10:25:51.464Z,3.90
2018-07-13T10:28:19.184Z,4.73
2018-07-13T10:30:46.986Z,5.17
2018-07-13T10:33:15.956Z,4.67
2018-07-13T10:35:43.715Z,4.17
2018-07-13T10:38:11.480Z,4.70
2018-07-13T10:40:39.088Z,5.27
2018-07-13T10:43:06.772Z,4.27
2018-07-13T10:45:34.683Z,4.60
2018-07-13T10:48:02.356Z,4.07
2018-07-13T10:50:29.971Z,4.40
2018-07-13T10:52:58.314Z,4.87
2018-07-13T10:55:26.924Z,4.90
2018-07-13T10:57:54.585Z,4.67
2018-07-13T11:00:23.221Z,4.70
2018-07-13T11:02:53.112Z,4.90
2018-07-13T11:05:21.191Z,4.27
2018-07-13T11:07:49.103Z,4.23
2018-07-13T11:10:16.951Z,4.43
2018-07-13T11:12:44.993Z,4.27
2018-07-13T11:15:12.681Z,3.80
2018-07-13T11:17:40.347Z,4.47
2018-07-13T11:20:07.973Z,4.37
2018-07-13T11:22:42.341Z,4.40
2018-07-13T11:25:10.013Z,4.53
2018-07-13T11:27:38.549Z,3.83
2018-07-13T11:30:09.679Z,4.27
2018-07-13T11:32:37.815Z,4.47
2018-07-13T11:35:05.648Z,3.90
2018-07-13T11:37:33.449Z,7.23
2018-07-13T11:40:01.162Z,4.30
2018-07-13T11:42:28.863Z,4.13
2018-07-13T11:44:57.512Z,4.17
2018-07-13T11:47:25.208Z,3.80
2018-07-13T11:49:52.854Z,3.73
2018-07-13T11:52:20.865Z,3.90
2018-07-13T11:54:48.547Z,4.17
2018-07-13T11:57:16.172Z,3.87
2018-07-13T11:59:43.777Z,3.43
2018-07-13T12:02:11.451Z,3.47
2018-07-13T12:04:39.068Z,4.07
2018-07-13T12:07:06.713Z,3.40
2018-07-13T12:09:34.364Z,3.70
2018-07-13T12:12:01.963Z,2.80
2018-07-13T12:14:29.685Z,3.37
2018-07-13T12:16:57.236Z,5.53
2018-07-13T12:19:24.820Z,4.30
2018-07-13T12:21:52.471Z,3.70
2018-07-13T12:24:20.034Z,3.50
2018-07-13T12:26:48.927Z,3.60
2018-07-13T12:29:16.580Z,3.33
2018-07-13T12:31:44.134Z,4.17
2018-07-13T12:34:11.851Z,3.37
2018-07-13T12:36:39.591Z,3.53
2018-07-13T12:39:07.283Z,3.47
2018-07-13T12:41:35.109Z,3.33
2018-07-13T12:44:02.852Z,3.50
2018-07-13T12:46:37.497Z,3.17
2018-07-13T12:49:07.124Z,3.70
2018-07-13T12:51:34.885Z,3.73
2018-07-13T12:54:02.725Z,3.83
2018-07-13T12:56:30.478Z,4.20
2018-07-13T12:58:59.431Z,4.70
2018-07-13T13:01:28.151Z,4.43
2018-07-13T13:03:55.811Z,4.03
2018-07-13T13:06:25.008Z,3.77
2018-07-13T13:08:53.367Z,4.00
2018-07-13T13:11:21.040Z,3.70
2018-07-13T13:13:49.675Z,3.00
2018-07-13T13:16:17.230Z,3.67
2018-07-13T13:18:44.847Z,3.60
2018-07-13T13:21:12.468Z,3.80
2018-07-13T13:23:40.681Z,3.70
2018-07-13T13:26:08.303Z,3.90
2018-07-13T13:28:35.888Z,4.70
2018-07-13T13:31:04.508Z,3.77
2018-07-13T13:33:32.117Z,4.00
2018-07-13T13:36:00.336Z,4.00
2018-07-13T13:38:27.948Z,3.20
2018-07-13T13:40:55.592Z,3.50
2018-07-13T13:43:23.175Z,3.93
2018-07-13T13:45:51.286Z,3.97
2018-07-13T13:48:18.887Z,4.03
2018-07-13T13:50:46.519Z,3.53
2018-07-13T13:53:15.413Z,3.43
2018-07-13T13:55:43.025Z,3.90
2018-07-13T13:58:12.176Z,3.93
2018-07-13T14:00:39.769Z,3.77
2018-07-13T14:03:07.464Z,3.80
2018-07-13T14:05:35.212Z,4.03
2018-07-13T14:08:02.912Z,3.80
2018-07-13T14:10:30.553Z,4.30
2018-07-13T14:12:58.237Z,3.50
2018-07-13T14:15:26.536Z,4.07
2018-07-13T14:17:54.167Z,3.90
2018-07-13T14:20:21.834Z,3.57
2018-07-13T14:22:49.508Z,3.60
2018-07-13T14:25:17.145Z,3.40
2018-07-13T14:27:44.756Z,3.93
2018-07-13T14:30:12.421Z,3.93
2018-07-13T14:32:40.038Z,3.80
2018-07-13T14:35:07.701Z,3.93
2018-07-13T14:37:36.160Z,3.90
2018-07-13T14:40:03.760Z,4.03
2018-07-13T14:42:31.304Z,3.70
2018-07-13T14:44:59.142Z,3.30
2018-07-13T14:47:26.738Z,4.10
2018-07-13T14:49:54.408Z,3.73
2018-07-13T14:52:22.083Z,4.83
2018-07-13T14:54:49.695Z,3.60
2018-07-13T14:57:17.383Z,4.80
2018-07-13T14:59:44.980Z,12.80
2018-07-13T15:02:12.620Z,3.87
2018-07-13T15:04:40.374Z,4.40
2018-07-13T15:07:07.958Z,3.57
2018-07-13T15:09:35.612Z,3.90
2018-07-13T15:12:03.932Z,3.60
2018-07-13T15:14:31.547Z,3.93
2018-07-13T15:17:00.962Z,3.97
2018-07-13T15:19:28.546Z,4.30
2018-07-13T15:21:59.008Z,4.43
2018-07-13T15:24:26.613Z,4.53
2018-07-13T15:26:54.279Z,4.17
2018-07-13T15:29:32.408Z,3.70
2018-07-13T15:32:00.039Z,4.47
2018-07-13T15:34:27.664Z,3.97
2018-07-13T15:36:55.306Z,4.67
2018-07-13T15:39:22.924Z,4.00
2018-07-13T15:41:50.551Z,4.07
2018-07-13T15:44:18.162Z,3.97
2018-07-13T15:46:45.805Z,4.10
2018-07-13T15:49:13.431Z,3.83
2018-07-13T15:51:40.984Z,4.10
2018-07-13T15:54:08.609Z,4.07
2018-07-13T15:56:36.192Z,3.90
2018-07-13T15:59:03.866Z,7.10
2018-07-13T16:01:31.479Z,4.53
2018-07-13T16:03:59.104Z,4.60
2018-07-13T16:06:26.756Z,4.47
2018-07-13T16:08:54.366Z,3.87
2018-07-13T16:11:21.942Z,4.83
2018-07-13T16:13:49.705Z,3.90
2018-07-13T16:16:17.323Z,3.50
2018-07-13T16:18:45.023Z,3.10
2018-07-13T16:21:12.636Z,3.80
2018-07-13T16:23:40.477Z,4.20
2018-07-13T16:26:08.089Z,3.70
2018-07-13T16:28:35.830Z,4.40
2018-07-13T16:31:03.418Z,3.63
2018-07-13T16:33:31.038Z,4.03
2018-07-13T16:35:58.712Z,4.30
2018-07-13T16:38:26.316Z,4.97
2018-07-13T16:40:53.957Z,3.70
2018-07-13T16:43:21.615Z,3.63
2018-07-13T16:45:49.206Z,3.67
2018-07-13T16:48:16.820Z,3.30
2018-07-13T16:50:44.549Z,3.10
2018-07-13T16:53:12.125Z,3.33
2018-07-13T16:55:39.766Z,3.90
2018-07-13T16:58:07.391Z,4.07
2018-07-13T17:00:35.091Z,3.70
2018-07-13T17:03:02.761Z,3.97
2018-07-13T17:05:30.375Z,5.03
2018-07-13T17:07:58.044Z,4.00
2018-07-13T17:10:25.642Z,3.83
2018-07-13T17:12:53.354Z,4.40
2018-07-13T17:15:20.970Z,4.50
2018-07-13T17:17:48.584Z,3.87
2018-07-13T17:20:16.280Z,3.77
2018-07-13T17:22:43.861Z,3.07
2018-07-13T17:25:11.512Z,4.43
2018-07-13T17:27:39.180Z,3.33
2018-07-13T17:30:08.080Z,3.53
2018-07-13T17:32:35.672Z,3.80
2018-07-13T17:35:03.425Z,4.07
2018-07-13T17:37:31.036Z,3.10
2018-07-13T17:39:58.699Z,4.00
2018-07-13T17:42:26.382Z,3.57
2018-07-13T17:44:54.102Z,3.83
2018-07-13T17:47:21.699Z,3.80
2018-07-13T17:49:49.338Z,3.83
2018-07-13T17:52:16.966Z,4.23
2018-07-13T17:54:44.540Z,4.27
2018-07-13T17:57:12.176Z,3.90
2018-07-13T17:59:39.800Z,4.27
2018-07-13T18:02:07.439Z,3.93
2018-07-13T18:04:35.130Z,3.50
2018-07-13T18:07:02.776Z,4.53
2018-07-13T18:09:30.380Z,4.10
2018-07-13T18:11:58.020Z,4.70
2018-07-13T18:14:25.644Z,4.43
2018-07-13T18:16:53.854Z,3.90
2018-07-13T18:19:26.548Z,3.97
2018-07-13T18:21:54.213Z,4.20
2018-07-13T18:24:21.877Z,5.20
2018-07-13T18:26:49.471Z,3.50
2018-07-13T18:29:17.136Z,4.37
2018-07-13T18:31:44.790Z,3.57
2018-07-13T18:34:12.431Z,4.00
2018-07-13T18:36:40.100Z,4.00
2018-07-13T18:39:07.792Z,4.60
2018-07-13T18:41:35.485Z,4.40
2018-07-13T18:44:03.107Z,4.40
2018-07-13T18:46:30.687Z,3.70
2018-07-13T18:48:58.288Z,4.10
2018-07-13T18:51:25.971Z,6.30
2018-07-13T18:53:53.602Z,3.80
2018-07-13T18:56:21.832Z,4.63
2018-07-13T18:58:50.090Z,4.60
2018-07-13T19:01:17.679Z,4.60
2018-07-13T19:03:45.313Z,4.97
2018-07-13T19:06:12.958Z,4.67
2018-07-13T19:08:40.602Z,6.80
2018-07-13T19:11:08.324Z,4.90
2018-07-13T19:13:35.966Z,4.20
2018-07-13T19:16:03.562Z,4.03
2018-07-13T19:18:40.918Z,4.70
2018-07-13T19:21:08.570Z,4.20
2018-07-13T19:23:36.191Z,4.40
2018-07-13T19:26:03.889Z,3.93
2018-07-13T19:28:31.854Z,4.10
2018-07-13T19:30:59.548Z,4.30
2018-07-13T19:33:27.315Z,5.00
2018-07-13T19:35:55.075Z,5.20
2018-07-13T19:38:22.686Z,4.57
2018-07-13T19:40:50.358Z,4.33
2018-07-13T19:43:19.287Z,5.10
2018-07-13T19:45:46.938Z,4.90
2018-07-13T19:48:14.688Z,4.97
2018-07-13T19:50:42.441Z,5.27
2018-07-13T19:53:10.151Z,4.67
2018-07-13T19:55:37.919Z,4.83
2018-07-13T19:58:05.608Z,5.50
2018-07-13T20:00:33.236Z,5.53
2018-07-13T20:03:01.148Z,5.73
2018-07-13T20:05:28.836Z,5.33
2018-07-13T20:07:56.454Z,5.70
2018-07-13T20:10:24.250Z,5.63
2018-07-13T20:12:52.016Z,5.70
2018-07-13T20:15:19.737Z,5.73
2018-07-13T20:17:47.432Z,5.27
2018-07-13T20:20:15.300Z,5.83
2018-07-13T20:22:42.968Z,6.63
2018-07-13T20:25:10.699Z,7.60
2018-07-13T20:27:38.490Z,7.73
2018-07-13T20:30:06.857Z,8.43
2018-07-13T20:32:34.565Z,8.63
2018-07-13T20:35:02.302Z,7.60
2018-07-13T20:37:29.991Z,8.90
2018-07-13T20:39:57.590Z,8.00
2018-07-13T20:42:25.221Z,8.40
2018-07-13T20:44:52.837Z,8.90
2018-07-13T20:47:20.849Z,8.33
2018-07-13T20:49:48.474Z,8.23
2018-07-13T20:52:17.040Z,7.63
2018-07-13T20:54:44.713Z,7.13
2018-07-13T20:57:12.498Z,9.10
2018-07-13T20:59:40.151Z,8.13
2018-07-13T21:02:07.750Z,7.93
2018-07-13T21:04:35.401Z,7.53
2018-07-13T21:07:03.033Z,7.87
2018-07-13T21:09:30.682Z,7.90
2018-07-13T21:11:58.406Z,7.50
2018-07-13T21:14:25.969Z,7.00
2018-07-13T21:16:53.641Z,6.63
2018-07-13T21:19:27.512Z,7.40
2018-07-13T21:21:55.268Z,6.77
2018-07-13T21:24:22.860Z,7.03
2018-07-13T21:26:50.583Z,7.17
2018-07-13T21:29:18.179Z,7.40
2018-07-13T21:31:45.845Z,7.40
2018-07-13T21:34:13.358Z,7.37
2018-07-13T21:36:41.825Z,8.20
2018-07-13T21:39:09.515Z,8.17
2018-07-13T21:41:37.090Z,7.37
2018-07-13T21:44:04.758Z,6.83
2018-07-13T21:46:32.370Z,7.70
2018-07-13T21:49:06.743Z,7.47
2018-07-13T21:51:38.260Z,7.20
2018-07-13T21:54:07.626Z,8.00
2018-07-13T21:56:35.241Z,6.87
2018-07-13T21:59:02.935Z,7.73
2018-07-13T22:01:30.532Z,7.50
2018-07-13T22:03:58.153Z,8.03
2018-07-13T22:06:25.743Z,8.80
2018-07-13T22:08:53.375Z,8.83
2018-07-13T22:11:21.030Z,7.17
2018-07-13T22:13:48.702Z,9.07
2018-07-13T22:16:16.272Z,7.73
2018-07-13T22:18:43.866Z,7.50
2018-07-13T22:21:11.511Z,8.50
2018-07-13T22:23:39.152Z,9.10
2018-07-13T22:26:06.715Z,9.37
2018-07-13T22:28:34.282Z,9.07
2018-07-13T22:31:01.967Z,9.83
2018-07-13T22:33:36.296Z,8.37
2018-07-13T22:36:03.972Z,7.90
2018-07-13T22:38:31.567Z,10.00
2018-07-13T22:40:59.262Z,10.23
2018-07-13T22:43:26.881Z,9.27
2018-07-13T22:45:54.486Z,8.90
2018-07-13T22:48:22.097Z,8.50
2018-07-13T22:50:49.741Z,9.63
2018-07-13T22:53:17.315Z,9.23
2018-07-13T22:55:44.949Z,9.50
2018-07-13T22:58:12.584Z,7.50
2018-07-13T23:00:40.272Z,8.40
2018-07-13T23:03:07.905Z,8.63
2018-07-13T23:05:35.496Z,9.13
2018-07-13T23:08:03.193Z,8.73
2018-07-13T23:10:30.819Z,10.33
2018-07-13T23:12:58.426Z,7.90
2018-07-13T23:15:26.070Z,9.53
2018-07-13T23:17:53.643Z,9.07
2018-07-13T23:20:22.153Z,8.30
2018-07-13T23:22:49.841Z,8.90
2018-07-13T23:25:25.942Z,9.77
2018-07-13T23:27:53.589Z,9.27
2018-07-13T23:30:21.128Z,10.00
2018-07-13T23:32:48.791Z,10.67
2018-07-13T23:35:16.430Z,9.67
2018-07-13T23:37:44.035Z,10.00
2018-07-13T23:40:11.640Z,9.87
2018-07-13T23:42:39.233Z,9.90
2018-07-13T23:45:06.823Z,9.00
2018-07-13T23:47:34.448Z,8.30
2018-07-13T23:50:02.133Z,8.97
2018-07-13T23:52:29.750Z,9.10
2018-07-13T23:54:57.323Z,9.10
2018-07-13T23:57:24.961Z,8.40
2018-07-13T23:59:52.528Z,8.60
